<?xml version='1.0' encoding='UTF-8'?><gpx version="1.1" creator="JPX - https://github.com/jenetics/jpx" xmlns="http://www.topografix.com/GPX/1/1"><trk><trkseg><trkpt lat="52.3807954" lon="21.0179888"><ele>76.0</ele><time>2026-04-04T15:46:45.931Z</time></trkpt><trkpt lat="52.3807463" lon="21.0178553"><ele>76.0</ele><time>2026-04-04T15:46:48.931Z</time></trkpt><trkpt lat="52.3807215" lon="21.0177447"><ele>76.0</ele><time>2026-04-04T15:46:50.931Z</time></trkpt><trkpt lat="52.3806891" lon="21.0176162"><ele>76.0</ele><time>2026-04-04T15:46:52.931Z</time></trkpt><trkpt lat="52.3806535" lon="21.0174831"><ele>76.0</ele><time>2026-04-04T15:46:54.931Z</time></trkpt><trkpt lat="52.3806172" lon="21.0173235"><ele>76.0</ele><time>2026-04-04T15:46:56.932Z</time></trkpt><trkpt lat="52.3805818" lon="21.0171692"><ele>76.16666666666666</ele><time>2026-04-04T15:46:58.931Z</time></trkpt><trkpt lat="52.380546" lon="21.0170053"><ele>76.33333333333333</ele><time>2026-04-04T15:47:00.931Z</time></trkpt><trkpt lat="52.3805048" lon="21.0168279"><ele>76.5</ele><time>2026-04-04T15:47:02.931Z</time></trkpt><trkpt lat="52.380481" lon="21.0167293"><ele>76.66666666666667</ele><time>2026-04-04T15:47:03.931Z</time></trkpt><trkpt lat="52.3804567" lon="21.0166271"><ele>76.83333333333334</ele><time>2026-04-04T15:47:04.931Z</time></trkpt><trkpt lat="52.3804341" lon="21.0165168"><ele>77.0</ele><time>2026-04-04T15:47:05.931Z</time></trkpt><trkpt lat="52.380414" lon="21.0164163"><ele>77.0</ele><time>2026-04-04T15:47:06.931Z</time></trkpt><trkpt lat="52.3803726" lon="21.0162255"><ele>77.0</ele><time>2026-04-04T15:47:08.931Z</time></trkpt><trkpt lat="52.3803517" lon="21.0161282"><ele>77.0</ele><time>2026-04-04T15:47:09.93Z</time></trkpt><trkpt lat="52.3803169" lon="21.015933"><ele>77.0</ele><time>2026-04-04T15:47:11.93Z</time></trkpt><trkpt lat="52.3802794" lon="21.0157484"><ele>77.0</ele><time>2026-04-04T15:47:13.93Z</time></trkpt><trkpt lat="52.3802435" lon="21.0155824"><ele>77.0</ele><time>2026-04-04T15:47:15.93Z</time></trkpt><trkpt lat="52.3802157" lon="21.0154741"><ele>77.0</ele><time>2026-04-04T15:47:17.93Z</time></trkpt><trkpt lat="52.3801621" lon="21.0154044"><ele>77.0</ele><time>2026-04-04T15:47:20.931Z</time></trkpt><trkpt lat="52.3801936" lon="21.0154986"><ele>77.0</ele><time>2026-04-04T15:47:24.93Z</time></trkpt><trkpt lat="52.3802396" lon="21.0155763"><ele>77.0</ele><time>2026-04-04T15:47:26.93Z</time></trkpt><trkpt lat="52.3802699" lon="21.0157042"><ele>77.0</ele><time>2026-04-04T15:47:28.931Z</time></trkpt><trkpt lat="52.3802878" lon="21.0158176"><ele>77.0</ele><time>2026-04-04T15:47:30.93Z</time></trkpt><trkpt lat="52.3803094" lon="21.015941"><ele>77.0</ele><time>2026-04-04T15:47:32.931Z</time></trkpt><trkpt lat="52.3803363" lon="21.0160889"><ele>77.0</ele><time>2026-04-04T15:47:34.931Z</time></trkpt><trkpt lat="52.3803707" lon="21.0162616"><ele>77.0</ele><time>2026-04-04T15:47:36.931Z</time></trkpt><trkpt lat="52.3804091" lon="21.0164543"><ele>77.0</ele><time>2026-04-04T15:47:38.93Z</time></trkpt><trkpt lat="52.3804317" lon="21.0165614"><ele>77.0</ele><time>2026-04-04T15:47:39.93Z</time></trkpt><trkpt lat="52.3804547" lon="21.0166758"><ele>77.0</ele><time>2026-04-04T15:47:40.931Z</time></trkpt><trkpt lat="52.3804822" lon="21.0167945"><ele>77.0</ele><time>2026-04-04T15:47:41.929Z</time></trkpt><trkpt lat="52.3805071" lon="21.0169048"><ele>77.0</ele><time>2026-04-04T15:47:42.931Z</time></trkpt><trkpt lat="52.3805335" lon="21.0170212"><ele>77.0</ele><time>2026-04-04T15:47:43.93Z</time></trkpt><trkpt lat="52.3805607" lon="21.0171435"><ele>77.0</ele><time>2026-04-04T15:47:44.931Z</time></trkpt><trkpt lat="52.3805879" lon="21.017252"><ele>77.0</ele><time>2026-04-04T15:47:45.931Z</time></trkpt><trkpt lat="52.3806139" lon="21.0173561"><ele>77.0</ele><time>2026-04-04T15:47:46.931Z</time></trkpt><trkpt lat="52.3806426" lon="21.0174726"><ele>76.83333333333334</ele><time>2026-04-04T15:47:47.931Z</time></trkpt><trkpt lat="52.3806722" lon="21.0175914"><ele>76.66666666666667</ele><time>2026-04-04T15:47:48.93Z</time></trkpt><trkpt lat="52.3807058" lon="21.0177192"><ele>76.5</ele><time>2026-04-04T15:47:49.931Z</time></trkpt><trkpt lat="52.3807379" lon="21.0178419"><ele>76.33333333333333</ele><time>2026-04-04T15:47:50.931Z</time></trkpt><trkpt lat="52.3807711" lon="21.0179657"><ele>76.16666666666666</ele><time>2026-04-04T15:47:51.931Z</time></trkpt><trkpt lat="52.3807995" lon="21.0180759"><ele>76.0</ele><time>2026-04-04T15:47:52.93Z</time></trkpt><trkpt lat="52.3808311" lon="21.0181679"><ele>76.0</ele><time>2026-04-04T15:47:53.931Z</time></trkpt><trkpt lat="52.3808591" lon="21.0182703"><ele>76.0</ele><time>2026-04-04T15:47:55.931Z</time></trkpt><trkpt lat="52.3808527" lon="21.0181572"><ele>76.0</ele><time>2026-04-04T15:48:00.93Z</time></trkpt><trkpt lat="52.3808141" lon="21.0180375"><ele>76.0</ele><time>2026-04-04T15:48:02.931Z</time></trkpt><trkpt lat="52.380777" lon="21.0179352"><ele>76.0</ele><time>2026-04-04T15:48:04.931Z</time></trkpt><trkpt lat="52.3807383" lon="21.0177877"><ele>76.0</ele><time>2026-04-04T15:48:06.93Z</time></trkpt><trkpt lat="52.3807028" lon="21.017637"><ele>76.2</ele><time>2026-04-04T15:48:08.93Z</time></trkpt><trkpt lat="52.3806596" lon="21.0174717"><ele>76.39999999999999</ele><time>2026-04-04T15:48:10.93Z</time></trkpt><trkpt lat="52.380612" lon="21.0172727"><ele>76.6</ele><time>2026-04-04T15:48:12.931Z</time></trkpt><trkpt lat="52.3805884" lon="21.0171615"><ele>76.8</ele><time>2026-04-04T15:48:13.93Z</time></trkpt><trkpt lat="52.3805626" lon="21.0170543"><ele>77.0</ele><time>2026-04-04T15:48:14.929Z</time></trkpt><trkpt lat="52.3805366" lon="21.0169444"><ele>77.0</ele><time>2026-04-04T15:48:15.931Z</time></trkpt><trkpt lat="52.3805088" lon="21.0168296"><ele>77.0</ele><time>2026-04-04T15:48:16.931Z</time></trkpt><trkpt lat="52.3804814" lon="21.0167109"><ele>77.0</ele><time>2026-04-04T15:48:17.93Z</time></trkpt><trkpt lat="52.3804547" lon="21.0165828"><ele>77.0</ele><time>2026-04-04T15:48:18.929Z</time></trkpt><trkpt lat="52.3804293" lon="21.0164535"><ele>77.0</ele><time>2026-04-04T15:48:19.931Z</time></trkpt><trkpt lat="52.380403" lon="21.0163297"><ele>77.0</ele><time>2026-04-04T15:48:20.931Z</time></trkpt><trkpt lat="52.3803765" lon="21.016201"><ele>77.0</ele><time>2026-04-04T15:48:21.931Z</time></trkpt><trkpt lat="52.3803529" lon="21.0160755"><ele>77.0</ele><time>2026-04-04T15:48:22.93Z</time></trkpt><trkpt lat="52.3803274" lon="21.0159519"><ele>77.0</ele><time>2026-04-04T15:48:23.931Z</time></trkpt><trkpt lat="52.3803035" lon="21.0158402"><ele>77.0</ele><time>2026-04-04T15:48:24.93Z</time></trkpt><trkpt lat="52.3802837" lon="21.0157298"><ele>77.0</ele><time>2026-04-04T15:48:25.931Z</time></trkpt><trkpt lat="52.3802634" lon="21.0156286"><ele>77.0</ele><time>2026-04-04T15:48:26.93Z</time></trkpt><trkpt lat="52.3802317" lon="21.0155192"><ele>77.0</ele><time>2026-04-04T15:48:28.93Z</time></trkpt><trkpt lat="52.3802249" lon="21.0156366"><ele>77.0</ele><time>2026-04-04T15:48:35.93Z</time></trkpt><trkpt lat="52.3802683" lon="21.0157132"><ele>77.0</ele><time>2026-04-04T15:48:37.929Z</time></trkpt><trkpt lat="52.3802977" lon="21.0158345"><ele>77.0</ele><time>2026-04-04T15:48:39.93Z</time></trkpt><trkpt lat="52.3803211" lon="21.0159801"><ele>77.0</ele><time>2026-04-04T15:48:41.93Z</time></trkpt><trkpt lat="52.3803529" lon="21.0161593"><ele>77.0</ele><time>2026-04-04T15:48:43.931Z</time></trkpt><trkpt lat="52.3803747" lon="21.0162598"><ele>77.0</ele><time>2026-04-04T15:48:44.93Z</time></trkpt><trkpt lat="52.3803974" lon="21.0163689"><ele>77.0</ele><time>2026-04-04T15:48:45.931Z</time></trkpt><trkpt lat="52.3804233" lon="21.0164922"><ele>77.0</ele><time>2026-04-04T15:48:46.931Z</time></trkpt><trkpt lat="52.38045" lon="21.0166242"><ele>77.0</ele><time>2026-04-04T15:48:47.93Z</time></trkpt><trkpt lat="52.3804794" lon="21.0167484"><ele>77.0</ele><time>2026-04-04T15:48:48.93Z</time></trkpt><trkpt lat="52.3805117" lon="21.01687"><ele>77.0</ele><time>2026-04-04T15:48:49.93Z</time></trkpt><trkpt lat="52.3805395" lon="21.0169845"><ele>77.0</ele><time>2026-04-04T15:48:50.931Z</time></trkpt><trkpt lat="52.3805671" lon="21.0171054"><ele>77.0</ele><time>2026-04-04T15:48:51.93Z</time></trkpt><trkpt lat="52.3805945" lon="21.017221"><ele>77.0</ele><time>2026-04-04T15:48:52.93Z</time></trkpt><trkpt lat="52.3806209" lon="21.01733"><ele>77.0</ele><time>2026-04-04T15:48:53.93Z</time></trkpt><trkpt lat="52.3806504" lon="21.0174461"><ele>77.0</ele><time>2026-04-04T15:48:54.931Z</time></trkpt><trkpt lat="52.3806792" lon="21.0175667"><ele>77.0</ele><time>2026-04-04T15:48:55.93Z</time></trkpt><trkpt lat="52.380711" lon="21.0176892"><ele>77.0</ele><time>2026-04-04T15:48:56.93Z</time></trkpt><trkpt lat="52.3807394" lon="21.017806"><ele>76.83333333333334</ele><time>2026-04-04T15:48:57.93Z</time></trkpt><trkpt lat="52.3807688" lon="21.0179261"><ele>76.66666666666667</ele><time>2026-04-04T15:48:58.93Z</time></trkpt><trkpt lat="52.3807963" lon="21.0180317"><ele>76.5</ele><time>2026-04-04T15:48:59.93Z</time></trkpt><trkpt lat="52.3808373" lon="21.0181714"><ele>76.33333333333333</ele><time>2026-04-04T15:49:01.93Z</time></trkpt><trkpt lat="52.3808879" lon="21.0182641"><ele>76.16666666666666</ele><time>2026-04-04T15:49:04.931Z</time></trkpt><trkpt lat="52.3808845" lon="21.0181562"><ele>76.0</ele><time>2026-04-04T15:49:07.931Z</time></trkpt><trkpt lat="52.3808276" lon="21.0180389"><ele>76.0</ele><time>2026-04-04T15:49:09.931Z</time></trkpt><trkpt lat="52.3807841" lon="21.0179266"><ele>76.0</ele><time>2026-04-04T15:49:11.931Z</time></trkpt><trkpt lat="52.380748" lon="21.0177917"><ele>76.0</ele><time>2026-04-04T15:49:13.93Z</time></trkpt><trkpt lat="52.3807109" lon="21.0176483"><ele>76.0</ele><time>2026-04-04T15:49:15.931Z</time></trkpt><trkpt lat="52.3806706" lon="21.0174916"><ele>76.0</ele><time>2026-04-04T15:49:17.931Z</time></trkpt><trkpt lat="52.3806256" lon="21.0173024"><ele>76.14285714285714</ele><time>2026-04-04T15:49:19.93Z</time></trkpt><trkpt lat="52.3806007" lon="21.0171939"><ele>76.28571428571429</ele><time>2026-04-04T15:49:20.93Z</time></trkpt><trkpt lat="52.3805726" lon="21.0170754"><ele>76.42857142857143</ele><time>2026-04-04T15:49:21.93Z</time></trkpt><trkpt lat="52.3805462" lon="21.0169631"><ele>76.57142857142857</ele><time>2026-04-04T15:49:22.93Z</time></trkpt><trkpt lat="52.3805222" lon="21.0168555"><ele>76.71428571428572</ele><time>2026-04-04T15:49:23.931Z</time></trkpt><trkpt lat="52.3804975" lon="21.0167406"><ele>76.85714285714286</ele><time>2026-04-04T15:49:24.93Z</time></trkpt><trkpt lat="52.3804722" lon="21.0166266"><ele>77.0</ele><time>2026-04-04T15:49:25.93Z</time></trkpt><trkpt lat="52.380448" lon="21.0165112"><ele>77.0</ele><time>2026-04-04T15:49:26.931Z</time></trkpt><trkpt lat="52.3804248" lon="21.0164003"><ele>77.0</ele><time>2026-04-04T15:49:27.931Z</time></trkpt><trkpt lat="52.3804032" lon="21.016286"><ele>77.0</ele><time>2026-04-04T15:49:28.931Z</time></trkpt><trkpt lat="52.380381" lon="21.016173"><ele>77.0</ele><time>2026-04-04T15:49:29.93Z</time></trkpt><trkpt lat="52.3803578" lon="21.0160609"><ele>77.0</ele><time>2026-04-04T15:49:30.93Z</time></trkpt><trkpt lat="52.3803385" lon="21.0159483"><ele>77.0</ele><time>2026-04-04T15:49:31.93Z</time></trkpt><trkpt lat="52.3803169" lon="21.0158473"><ele>77.0</ele><time>2026-04-04T15:49:32.931Z</time></trkpt><trkpt lat="52.380282" lon="21.0156663"><ele>77.0</ele><time>2026-04-04T15:49:34.931Z</time></trkpt><trkpt lat="52.3802482" lon="21.0155428"><ele>77.0</ele><time>2026-04-04T15:49:36.931Z</time></trkpt><trkpt lat="52.3801953" lon="21.0154654"><ele>77.0</ele><time>2026-04-04T15:49:40.93Z</time></trkpt><trkpt lat="52.3802206" lon="21.0155722"><ele>77.0</ele><time>2026-04-04T15:49:43.931Z</time></trkpt><trkpt lat="52.3802563" lon="21.0156903"><ele>77.0</ele><time>2026-04-04T15:49:45.929Z</time></trkpt><trkpt lat="52.3802882" lon="21.0158301"><ele>77.0</ele><time>2026-04-04T15:49:47.93Z</time></trkpt><trkpt lat="52.3803164" lon="21.0159895"><ele>77.0</ele><time>2026-04-04T15:49:49.929Z</time></trkpt><trkpt lat="52.3803521" lon="21.0161847"><ele>77.0</ele><time>2026-04-04T15:49:51.929Z</time></trkpt><trkpt lat="52.3803779" lon="21.0162966"><ele>77.0</ele><time>2026-04-04T15:49:52.93Z</time></trkpt><trkpt lat="52.3804019" lon="21.0164217"><ele>77.0</ele><time>2026-04-04T15:49:53.931Z</time></trkpt><trkpt lat="52.3804263" lon="21.0165397"><ele>77.0</ele><time>2026-04-04T15:49:54.931Z</time></trkpt><trkpt lat="52.3804504" lon="21.0166528"><ele>77.0</ele><time>2026-04-04T15:49:55.931Z</time></trkpt><trkpt lat="52.3804766" lon="21.0167701"><ele>77.0</ele><time>2026-04-04T15:49:56.93Z</time></trkpt><trkpt lat="52.3805018" lon="21.0168854"><ele>77.0</ele><time>2026-04-04T15:49:57.931Z</time></trkpt><trkpt lat="52.3805305" lon="21.0170017"><ele>77.0</ele><time>2026-04-04T15:49:58.93Z</time></trkpt><trkpt lat="52.3805584" lon="21.0171205"><ele>77.0</ele><time>2026-04-04T15:49:59.931Z</time></trkpt><trkpt lat="52.3805874" lon="21.0172429"><ele>77.0</ele><time>2026-04-04T15:50:00.931Z</time></trkpt><trkpt lat="52.3806152" lon="21.017356"><ele>77.0</ele><time>2026-04-04T15:50:01.93Z</time></trkpt><trkpt lat="52.3806427" lon="21.0174746"><ele>76.83333333333334</ele><time>2026-04-04T15:50:02.93Z</time></trkpt><trkpt lat="52.3806711" lon="21.0175924"><ele>76.66666666666667</ele><time>2026-04-04T15:50:03.931Z</time></trkpt><trkpt lat="52.3807004" lon="21.0177122"><ele>76.5</ele><time>2026-04-04T15:50:04.931Z</time></trkpt><trkpt lat="52.3807312" lon="21.0178332"><ele>76.33333333333333</ele><time>2026-04-04T15:50:05.93Z</time></trkpt><trkpt lat="52.3807633" lon="21.0179555"><ele>76.16666666666666</ele><time>2026-04-04T15:50:06.93Z</time></trkpt><trkpt lat="52.3807904" lon="21.0180593"><ele>76.0</ele><time>2026-04-04T15:50:07.93Z</time></trkpt><trkpt lat="52.3808281" lon="21.018172"><ele>76.0</ele><time>2026-04-04T15:50:09.93Z</time></trkpt><trkpt lat="52.3808244" lon="21.0180458"><ele>76.0</ele><time>2026-04-04T15:50:16.931Z</time></trkpt><trkpt lat="52.3807827" lon="21.0179271"><ele>76.0</ele><time>2026-04-04T15:50:18.93Z</time></trkpt><trkpt lat="52.3807402" lon="21.0177931"><ele>76.0</ele><time>2026-04-04T15:50:20.931Z</time></trkpt><trkpt lat="52.3807045" lon="21.0176505"><ele>76.0</ele><time>2026-04-04T15:50:22.93Z</time></trkpt><trkpt lat="52.3806719" lon="21.0175168"><ele>76.0</ele><time>2026-04-04T15:50:24.93Z</time></trkpt><trkpt lat="52.3806347" lon="21.0173586"><ele>76.2</ele><time>2026-04-04T15:50:26.93Z</time></trkpt><trkpt lat="52.380598" lon="21.0171696"><ele>76.39999999999999</ele><time>2026-04-04T15:50:28.931Z</time></trkpt><trkpt lat="52.3805524" lon="21.0169774"><ele>76.6</ele><time>2026-04-04T15:50:30.93Z</time></trkpt><trkpt lat="52.3805082" lon="21.0168029"><ele>76.8</ele><time>2026-04-04T15:50:32.93Z</time></trkpt><trkpt lat="52.3804846" lon="21.0166982"><ele>77.0</ele><time>2026-04-04T15:50:33.931Z</time></trkpt><trkpt lat="52.3804626" lon="21.0165941"><ele>77.0</ele><time>2026-04-04T15:50:34.93Z</time></trkpt><trkpt lat="52.3804273" lon="21.0164135"><ele>77.0</ele><time>2026-04-04T15:50:36.93Z</time></trkpt><trkpt lat="52.380404" lon="21.0163125"><ele>77.0</ele><time>2026-04-04T15:50:37.93Z</time></trkpt><trkpt lat="52.3803834" lon="21.0162102"><ele>77.0</ele><time>2026-04-04T15:50:38.93Z</time></trkpt><trkpt lat="52.3803474" lon="21.0160307"><ele>77.0</ele><time>2026-04-04T15:50:40.931Z</time></trkpt><trkpt lat="52.3803289" lon="21.0159276"><ele>77.0</ele><time>2026-04-04T15:50:41.93Z</time></trkpt><trkpt lat="52.3802941" lon="21.0157527"><ele>77.0</ele><time>2026-04-04T15:50:43.93Z</time></trkpt><trkpt lat="52.380263" lon="21.0156122"><ele>77.0</ele><time>2026-04-04T15:50:45.931Z</time></trkpt><trkpt lat="52.3802297" lon="21.0154778"><ele>77.0</ele><time>2026-04-04T15:50:48.93Z</time></trkpt><trkpt lat="52.3802457" lon="21.0156052"><ele>77.0</ele><time>2026-04-04T15:50:54.931Z</time></trkpt><trkpt lat="52.3802665" lon="21.0157056"><ele>77.0</ele><time>2026-04-04T15:50:56.931Z</time></trkpt><trkpt lat="52.3802924" lon="21.0158603"><ele>77.0</ele><time>2026-04-04T15:50:58.93Z</time></trkpt><trkpt lat="52.3803203" lon="21.016025"><ele>77.0</ele><time>2026-04-04T15:51:00.931Z</time></trkpt><trkpt lat="52.3803589" lon="21.0162327"><ele>77.0</ele><time>2026-04-04T15:51:02.93Z</time></trkpt><trkpt lat="52.3803829" lon="21.0163494"><ele>77.0</ele><time>2026-04-04T15:51:03.93Z</time></trkpt><trkpt lat="52.380408" lon="21.016477"><ele>77.0</ele><time>2026-04-04T15:51:04.931Z</time></trkpt><trkpt lat="52.3804364" lon="21.0166122"><ele>77.0</ele><time>2026-04-04T15:51:05.93Z</time></trkpt><trkpt lat="52.3804676" lon="21.0167498"><ele>77.0</ele><time>2026-04-04T15:51:06.931Z</time></trkpt><trkpt lat="52.3804986" lon="21.016883"><ele>77.0</ele><time>2026-04-04T15:51:07.93Z</time></trkpt><trkpt lat="52.3805267" lon="21.017008"><ele>77.0</ele><time>2026-04-04T15:51:08.93Z</time></trkpt><trkpt lat="52.3805576" lon="21.0171249"><ele>77.0</ele><time>2026-04-04T15:51:09.931Z</time></trkpt><trkpt lat="52.3805883" lon="21.0172431"><ele>77.0</ele><time>2026-04-04T15:51:10.931Z</time></trkpt><trkpt lat="52.3806148" lon="21.0173551"><ele>77.0</ele><time>2026-04-04T15:51:11.931Z</time></trkpt><trkpt lat="52.380641" lon="21.0174675"><ele>76.83333333333334</ele><time>2026-04-04T15:51:12.931Z</time></trkpt><trkpt lat="52.3806699" lon="21.0175897"><ele>76.66666666666667</ele><time>2026-04-04T15:51:13.93Z</time></trkpt><trkpt lat="52.3807003" lon="21.0177032"><ele>76.5</ele><time>2026-04-04T15:51:14.931Z</time></trkpt><trkpt lat="52.380728" lon="21.0178142"><ele>76.33333333333333</ele><time>2026-04-04T15:51:15.931Z</time></trkpt><trkpt lat="52.3807582" lon="21.017933"><ele>76.16666666666666</ele><time>2026-04-04T15:51:16.931Z</time></trkpt><trkpt lat="52.3807882" lon="21.0180437"><ele>76.0</ele><time>2026-04-04T15:51:17.931Z</time></trkpt><trkpt lat="52.3808306" lon="21.0181747"><ele>76.0</ele><time>2026-04-04T15:51:19.931Z</time></trkpt><trkpt lat="52.3808937" lon="21.0181835"><ele>76.0</ele><time>2026-04-04T15:51:23.93Z</time></trkpt><trkpt lat="52.3808393" lon="21.0181055"><ele>76.0</ele><time>2026-04-04T15:51:25.931Z</time></trkpt><trkpt lat="52.3808016" lon="21.0180205"><ele>76.0</ele><time>2026-04-04T15:51:27.93Z</time></trkpt><trkpt lat="52.3807689" lon="21.0178669"><ele>76.0</ele><time>2026-04-04T15:51:29.931Z</time></trkpt><trkpt lat="52.3807221" lon="21.0177039"><ele>76.0</ele><time>2026-04-04T15:51:31.93Z</time></trkpt><trkpt lat="52.3806805" lon="21.0175118"><ele>76.16666666666666</ele><time>2026-04-04T15:51:33.929Z</time></trkpt><trkpt lat="52.3806355" lon="21.0173141"><ele>76.33333333333333</ele><time>2026-04-04T15:51:35.93Z</time></trkpt><trkpt lat="52.3806101" lon="21.0172031"><ele>76.5</ele><time>2026-04-04T15:51:36.929Z</time></trkpt><trkpt lat="52.3805828" lon="21.0170861"><ele>76.66666666666667</ele><time>2026-04-04T15:51:37.93Z</time></trkpt><trkpt lat="52.3805575" lon="21.0169707"><ele>76.83333333333334</ele><time>2026-04-04T15:51:38.93Z</time></trkpt><trkpt lat="52.3805297" lon="21.0168483"><ele>77.0</ele><time>2026-04-04T15:51:39.931Z</time></trkpt><trkpt lat="52.3805008" lon="21.0167232"><ele>77.0</ele><time>2026-04-04T15:51:40.93Z</time></trkpt><trkpt lat="52.3804705" lon="21.016593"><ele>77.0</ele><time>2026-04-04T15:51:41.931Z</time></trkpt><trkpt lat="52.3804422" lon="21.0164572"><ele>77.0</ele><time>2026-04-04T15:51:42.93Z</time></trkpt><trkpt lat="52.3804142" lon="21.0163261"><ele>77.0</ele><time>2026-04-04T15:51:43.931Z</time></trkpt><trkpt lat="52.380386" lon="21.0161929"><ele>77.0</ele><time>2026-04-04T15:51:44.93Z</time></trkpt><trkpt lat="52.38036" lon="21.016067"><ele>77.0</ele><time>2026-04-04T15:51:45.931Z</time></trkpt><trkpt lat="52.3803351" lon="21.0159486"><ele>77.0</ele><time>2026-04-04T15:51:46.93Z</time></trkpt><trkpt lat="52.3803112" lon="21.0158337"><ele>77.0</ele><time>2026-04-04T15:51:47.93Z</time></trkpt><trkpt lat="52.3802905" lon="21.0157274"><ele>77.0</ele><time>2026-04-04T15:51:48.931Z</time></trkpt><trkpt lat="52.380254" lon="21.0155726"><ele>77.0</ele><time>2026-04-04T15:51:50.93Z</time></trkpt><trkpt lat="52.3802179" lon="21.0154722"><ele>77.0</ele><time>2026-04-04T15:51:53.93Z</time></trkpt><trkpt lat="52.3802208" lon="21.0155873"><ele>77.0</ele><time>2026-04-04T15:51:57.93Z</time></trkpt><trkpt lat="52.3802614" lon="21.0156842"><ele>77.0</ele><time>2026-04-04T15:51:59.929Z</time></trkpt><trkpt lat="52.3802979" lon="21.0158425"><ele>77.0</ele><time>2026-04-04T15:52:01.929Z</time></trkpt><trkpt lat="52.3803262" lon="21.0160164"><ele>77.0</ele><time>2026-04-04T15:52:03.93Z</time></trkpt><trkpt lat="52.3803452" lon="21.0161165"><ele>77.0</ele><time>2026-04-04T15:52:04.93Z</time></trkpt><trkpt lat="52.3803668" lon="21.0162234"><ele>77.0</ele><time>2026-04-04T15:52:05.93Z</time></trkpt><trkpt lat="52.3803916" lon="21.0163398"><ele>77.0</ele><time>2026-04-04T15:52:06.929Z</time></trkpt><trkpt lat="52.3804156" lon="21.0164674"><ele>77.0</ele><time>2026-04-04T15:52:07.929Z</time></trkpt><trkpt lat="52.3804457" lon="21.0166053"><ele>77.0</ele><time>2026-04-04T15:52:08.929Z</time></trkpt><trkpt lat="52.3804764" lon="21.0167321"><ele>77.0</ele><time>2026-04-04T15:52:09.93Z</time></trkpt><trkpt lat="52.3805039" lon="21.0168524"><ele>77.0</ele><time>2026-04-04T15:52:10.929Z</time></trkpt><trkpt lat="52.3805297" lon="21.0169624"><ele>77.0</ele><time>2026-04-04T15:52:11.929Z</time></trkpt><trkpt lat="52.380556" lon="21.0170692"><ele>77.0</ele><time>2026-04-04T15:52:12.93Z</time></trkpt><trkpt lat="52.380581" lon="21.0171863"><ele>77.0</ele><time>2026-04-04T15:52:13.929Z</time></trkpt><trkpt lat="52.3806105" lon="21.0173026"><ele>77.0</ele><time>2026-04-04T15:52:14.93Z</time></trkpt><trkpt lat="52.3806349" lon="21.0174078"><ele>77.0</ele><time>2026-04-04T15:52:15.93Z</time></trkpt><trkpt lat="52.3806614" lon="21.0175101"><ele>77.0</ele><time>2026-04-04T15:52:16.93Z</time></trkpt><trkpt lat="52.380689" lon="21.0176161"><ele>77.0</ele><time>2026-04-04T15:52:17.93Z</time></trkpt><trkpt lat="52.3807185" lon="21.0177375"><ele>77.0</ele><time>2026-04-04T15:52:18.93Z</time></trkpt><trkpt lat="52.380746" lon="21.0178568"><ele>77.0</ele><time>2026-04-04T15:52:19.928Z</time></trkpt><trkpt lat="52.3807785" lon="21.0179802"><ele>76.83333333333334</ele><time>2026-04-04T15:52:20.929Z</time></trkpt><trkpt lat="52.3808281" lon="21.0181335"><ele>76.66666666666667</ele><time>2026-04-04T15:52:22.929Z</time></trkpt><trkpt lat="52.3808673" lon="21.018231"><ele>76.5</ele><time>2026-04-04T15:52:25.93Z</time></trkpt><trkpt lat="52.380846" lon="21.0180906"><ele>76.33333333333333</ele><time>2026-04-04T15:52:53.928Z</time></trkpt><trkpt lat="52.3807993" lon="21.0179978"><ele>76.16666666666666</ele><time>2026-04-04T15:52:55.93Z</time></trkpt><trkpt lat="52.3807699" lon="21.0178765"><ele>76.0</ele><time>2026-04-04T15:52:57.93Z</time></trkpt><trkpt lat="52.3807391" lon="21.0177508"><ele>76.0</ele><time>2026-04-04T15:52:59.93Z</time></trkpt><trkpt lat="52.3806994" lon="21.0175982"><ele>76.0</ele><time>2026-04-04T15:53:01.93Z</time></trkpt><trkpt lat="52.3806605" lon="21.0174332"><ele>76.0</ele><time>2026-04-04T15:53:03.929Z</time></trkpt><trkpt lat="52.3806176" lon="21.0172507"><ele>76.0</ele><time>2026-04-04T15:53:05.93Z</time></trkpt><trkpt lat="52.380575" lon="21.0170549"><ele>76.14285714285714</ele><time>2026-04-04T15:53:07.929Z</time></trkpt><trkpt lat="52.3805492" lon="21.0169575"><ele>76.28571428571429</ele><time>2026-04-04T15:53:08.93Z</time></trkpt><trkpt lat="52.3805251" lon="21.0168531"><ele>76.42857142857143</ele><time>2026-04-04T15:53:09.929Z</time></trkpt><trkpt lat="52.380499" lon="21.0167432"><ele>76.57142857142857</ele><time>2026-04-04T15:53:10.929Z</time></trkpt><trkpt lat="52.3804757" lon="21.0166314"><ele>76.71428571428572</ele><time>2026-04-04T15:53:11.929Z</time></trkpt><trkpt lat="52.3804505" lon="21.0165201"><ele>76.85714285714286</ele><time>2026-04-04T15:53:12.93Z</time></trkpt><trkpt lat="52.3804273" lon="21.0164068"><ele>77.0</ele><time>2026-04-04T15:53:13.929Z</time></trkpt><trkpt lat="52.380403" lon="21.0162879"><ele>77.0</ele><time>2026-04-04T15:53:14.929Z</time></trkpt><trkpt lat="52.3803769" lon="21.0161713"><ele>77.0</ele><time>2026-04-04T15:53:15.929Z</time></trkpt><trkpt lat="52.3803562" lon="21.0160564"><ele>77.0</ele><time>2026-04-04T15:53:16.929Z</time></trkpt><trkpt lat="52.3803348" lon="21.0159458"><ele>77.0</ele><time>2026-04-04T15:53:17.93Z</time></trkpt><trkpt lat="52.3803132" lon="21.0158428"><ele>77.0</ele><time>2026-04-04T15:53:18.93Z</time></trkpt><trkpt lat="52.380295" lon="21.0157379"><ele>77.0</ele><time>2026-04-04T15:53:19.93Z</time></trkpt><trkpt lat="52.3802565" lon="21.0155589"><ele>77.0</ele><time>2026-04-04T15:53:21.928Z</time></trkpt><trkpt lat="52.3802127" lon="21.0154414"><ele>77.0</ele><time>2026-04-04T15:53:24.93Z</time></trkpt><trkpt lat="52.3801985" lon="21.0155445"><ele>77.0</ele><time>2026-04-04T15:53:28.93Z</time></trkpt><trkpt lat="52.3802543" lon="21.0156684"><ele>77.0</ele><time>2026-04-04T15:53:31.929Z</time></trkpt><trkpt lat="52.3802878" lon="21.0158059"><ele>77.0</ele><time>2026-04-04T15:53:33.93Z</time></trkpt><trkpt lat="52.3803144" lon="21.01598"><ele>77.0</ele><time>2026-04-04T15:53:35.929Z</time></trkpt><trkpt lat="52.3803325" lon="21.0160797"><ele>77.0</ele><time>2026-04-04T15:53:36.93Z</time></trkpt><trkpt lat="52.3803535" lon="21.0161848"><ele>77.0</ele><time>2026-04-04T15:53:37.93Z</time></trkpt><trkpt lat="52.3803765" lon="21.0162929"><ele>77.0</ele><time>2026-04-04T15:53:38.93Z</time></trkpt><trkpt lat="52.3803986" lon="21.0164033"><ele>77.0</ele><time>2026-04-04T15:53:39.928Z</time></trkpt><trkpt lat="52.3804197" lon="21.016504"><ele>77.0</ele><time>2026-04-04T15:53:40.929Z</time></trkpt><trkpt lat="52.3804405" lon="21.0166137"><ele>77.0</ele><time>2026-04-04T15:53:41.93Z</time></trkpt><trkpt lat="52.3804664" lon="21.0167216"><ele>77.0</ele><time>2026-04-04T15:53:42.93Z</time></trkpt><trkpt lat="52.3804913" lon="21.0168355"><ele>77.0</ele><time>2026-04-04T15:53:43.929Z</time></trkpt><trkpt lat="52.3805174" lon="21.0169412"><ele>77.0</ele><time>2026-04-04T15:53:44.928Z</time></trkpt><trkpt lat="52.3805418" lon="21.0170438"><ele>77.0</ele><time>2026-04-04T15:53:45.929Z</time></trkpt><trkpt lat="52.3805674" lon="21.0171524"><ele>77.0</ele><time>2026-04-04T15:53:46.93Z</time></trkpt><trkpt lat="52.3805884" lon="21.0172519"><ele>77.0</ele><time>2026-04-04T15:53:47.93Z</time></trkpt><trkpt lat="52.3806371" lon="21.0174446"><ele>77.0</ele><time>2026-04-04T15:53:49.929Z</time></trkpt><trkpt lat="52.3806623" lon="21.0175475"><ele>76.83333333333334</ele><time>2026-04-04T15:53:50.929Z</time></trkpt><trkpt lat="52.3806892" lon="21.0176525"><ele>76.66666666666667</ele><time>2026-04-04T15:53:51.93Z</time></trkpt><trkpt lat="52.3807143" lon="21.0177594"><ele>76.5</ele><time>2026-04-04T15:53:52.929Z</time></trkpt><trkpt lat="52.380743" lon="21.0178705"><ele>76.33333333333333</ele><time>2026-04-04T15:53:53.929Z</time></trkpt><trkpt lat="52.380771" lon="21.0179743"><ele>76.16666666666666</ele><time>2026-04-04T15:53:54.93Z</time></trkpt><trkpt lat="52.3808143" lon="21.0181228"><ele>76.0</ele><time>2026-04-04T15:53:56.93Z</time></trkpt><trkpt lat="52.3808641" lon="21.0182115"><ele>76.0</ele><time>2026-04-04T15:53:59.929Z</time></trkpt><trkpt lat="52.3808541" lon="21.0180956"><ele>76.0</ele><time>2026-04-04T15:54:02.93Z</time></trkpt><trkpt lat="52.3808016" lon="21.0179736"><ele>76.0</ele><time>2026-04-04T15:54:05.929Z</time></trkpt><trkpt lat="52.3807633" lon="21.0178608"><ele>76.0</ele><time>2026-04-04T15:54:07.929Z</time></trkpt><trkpt lat="52.3807301" lon="21.0177248"><ele>76.0</ele><time>2026-04-04T15:54:09.928Z</time></trkpt><trkpt lat="52.3806916" lon="21.0175758"><ele>76.0</ele><time>2026-04-04T15:54:11.93Z</time></trkpt><trkpt lat="52.3806506" lon="21.0174021"><ele>76.14285714285714</ele><time>2026-04-04T15:54:13.93Z</time></trkpt><trkpt lat="52.3806281" lon="21.0173038"><ele>76.28571428571429</ele><time>2026-04-04T15:54:14.929Z</time></trkpt><trkpt lat="52.3806039" lon="21.017202"><ele>76.42857142857143</ele><time>2026-04-04T15:54:15.93Z</time></trkpt><trkpt lat="52.380579" lon="21.0170901"><ele>76.57142857142857</ele><time>2026-04-04T15:54:16.93Z</time></trkpt><trkpt lat="52.3805487" lon="21.0169732"><ele>76.71428571428572</ele><time>2026-04-04T15:54:17.93Z</time></trkpt><trkpt lat="52.3805239" lon="21.0168529"><ele>76.85714285714286</ele><time>2026-04-04T15:54:18.93Z</time></trkpt><trkpt lat="52.3804951" lon="21.0167296"><ele>77.0</ele><time>2026-04-04T15:54:19.929Z</time></trkpt><trkpt lat="52.3804619" lon="21.016597"><ele>77.0</ele><time>2026-04-04T15:54:20.93Z</time></trkpt><trkpt lat="52.3804335" lon="21.0164593"><ele>77.0</ele><time>2026-04-04T15:54:21.93Z</time></trkpt><trkpt lat="52.380402" lon="21.016318"><ele>77.0</ele><time>2026-04-04T15:54:22.93Z</time></trkpt><trkpt lat="52.3803753" lon="21.0161788"><ele>77.0</ele><time>2026-04-04T15:54:23.93Z</time></trkpt><trkpt lat="52.3803465" lon="21.016032"><ele>77.0</ele><time>2026-04-04T15:54:24.929Z</time></trkpt><trkpt lat="52.3803187" lon="21.0158938"><ele>77.0</ele><time>2026-04-04T15:54:25.93Z</time></trkpt><trkpt lat="52.3802933" lon="21.0157639"><ele>77.0</ele><time>2026-04-04T15:54:26.929Z</time></trkpt><trkpt lat="52.3802536" lon="21.0155989"><ele>77.0</ele><time>2026-04-04T15:54:28.929Z</time></trkpt><trkpt lat="52.3802259" lon="21.0155056"><ele>77.0</ele><time>2026-04-04T15:54:30.93Z</time></trkpt><trkpt lat="52.3802264" lon="21.0156352"><ele>77.0</ele><time>2026-04-04T15:54:36.93Z</time></trkpt><trkpt lat="52.3802717" lon="21.0157334"><ele>77.0</ele><time>2026-04-04T15:54:39.929Z</time></trkpt><trkpt lat="52.3803017" lon="21.0158839"><ele>77.0</ele><time>2026-04-04T15:54:42.93Z</time></trkpt><trkpt lat="52.3803228" lon="21.0160069"><ele>77.0</ele><time>2026-04-04T15:54:44.93Z</time></trkpt><trkpt lat="52.3803522" lon="21.016167"><ele>77.0</ele><time>2026-04-04T15:54:46.929Z</time></trkpt><trkpt lat="52.3803893" lon="21.0163574"><ele>77.0</ele><time>2026-04-04T15:54:48.929Z</time></trkpt><trkpt lat="52.3804122" lon="21.0164671"><ele>77.0</ele><time>2026-04-04T15:54:49.929Z</time></trkpt><trkpt lat="52.380437" lon="21.0165814"><ele>77.0</ele><time>2026-04-04T15:54:50.928Z</time></trkpt><trkpt lat="52.3804603" lon="21.0166919"><ele>77.0</ele><time>2026-04-04T15:54:51.929Z</time></trkpt><trkpt lat="52.3804864" lon="21.0168072"><ele>77.0</ele><time>2026-04-04T15:54:52.929Z</time></trkpt><trkpt lat="52.3805123" lon="21.0169221"><ele>77.0</ele><time>2026-04-04T15:54:53.93Z</time></trkpt><trkpt lat="52.3805408" lon="21.0170343"><ele>77.0</ele><time>2026-04-04T15:54:54.929Z</time></trkpt><trkpt lat="52.380569" lon="21.0171492"><ele>77.0</ele><time>2026-04-04T15:54:55.929Z</time></trkpt><trkpt lat="52.3805962" lon="21.0172691"><ele>77.0</ele><time>2026-04-04T15:54:56.929Z</time></trkpt><trkpt lat="52.3806236" lon="21.0173878"><ele>76.83333333333334</ele><time>2026-04-04T15:54:57.929Z</time></trkpt><trkpt lat="52.3806542" lon="21.0175137"><ele>76.66666666666667</ele><time>2026-04-04T15:54:58.929Z</time></trkpt><trkpt lat="52.3806863" lon="21.0176426"><ele>76.5</ele><time>2026-04-04T15:54:59.929Z</time></trkpt><trkpt lat="52.3807175" lon="21.0177641"><ele>76.33333333333333</ele><time>2026-04-04T15:55:00.93Z</time></trkpt><trkpt lat="52.3807484" lon="21.0178825"><ele>76.16666666666666</ele><time>2026-04-04T15:55:01.929Z</time></trkpt><trkpt lat="52.3807789" lon="21.0179938"><ele>76.0</ele><time>2026-04-04T15:55:02.929Z</time></trkpt><trkpt lat="52.3808279" lon="21.0181551"><ele>76.0</ele><time>2026-04-04T15:55:04.929Z</time></trkpt><trkpt lat="52.3808763" lon="21.0182535"><ele>76.0</ele><time>2026-04-04T15:55:07.929Z</time></trkpt><trkpt lat="52.380889" lon="21.0181399"><ele>76.0</ele><time>2026-04-04T15:55:10.929Z</time></trkpt><trkpt lat="52.3808301" lon="21.0180181"><ele>76.0</ele><time>2026-04-04T15:55:12.93Z</time></trkpt><trkpt lat="52.3807842" lon="21.0178979"><ele>76.0</ele><time>2026-04-04T15:55:14.929Z</time></trkpt><trkpt lat="52.3807439" lon="21.0177503"><ele>76.0</ele><time>2026-04-04T15:55:16.929Z</time></trkpt><trkpt lat="52.3807072" lon="21.0175966"><ele>76.2</ele><time>2026-04-04T15:55:18.93Z</time></trkpt><trkpt lat="52.3806682" lon="21.0174364"><ele>76.39999999999999</ele><time>2026-04-04T15:55:20.929Z</time></trkpt><trkpt lat="52.380622" lon="21.0172491"><ele>76.6</ele><time>2026-04-04T15:55:22.929Z</time></trkpt><trkpt lat="52.3805833" lon="21.01708"><ele>76.8</ele><time>2026-04-04T15:55:24.929Z</time></trkpt><trkpt lat="52.3805608" lon="21.0169821"><ele>77.0</ele><time>2026-04-04T15:55:25.929Z</time></trkpt><trkpt lat="52.3805368" lon="21.0168772"><ele>77.0</ele><time>2026-04-04T15:55:26.93Z</time></trkpt><trkpt lat="52.3805106" lon="21.0167674"><ele>77.0</ele><time>2026-04-04T15:55:27.93Z</time></trkpt><trkpt lat="52.3804824" lon="21.0166501"><ele>77.0</ele><time>2026-04-04T15:55:28.929Z</time></trkpt><trkpt lat="52.3804555" lon="21.0165248"><ele>77.0</ele><time>2026-04-04T15:55:29.929Z</time></trkpt><trkpt lat="52.3804286" lon="21.0163937"><ele>77.0</ele><time>2026-04-04T15:55:30.93Z</time></trkpt><trkpt lat="52.3804007" lon="21.016258"><ele>77.0</ele><time>2026-04-04T15:55:31.93Z</time></trkpt><trkpt lat="52.3803719" lon="21.0161195"><ele>77.0</ele><time>2026-04-04T15:55:32.93Z</time></trkpt><trkpt lat="52.380347" lon="21.0159878"><ele>77.0</ele><time>2026-04-04T15:55:33.929Z</time></trkpt><trkpt lat="52.3803231" lon="21.0158702"><ele>77.0</ele><time>2026-04-04T15:55:34.929Z</time></trkpt><trkpt lat="52.3802979" lon="21.0157611"><ele>77.0</ele><time>2026-04-04T15:55:35.93Z</time></trkpt><trkpt lat="52.380269" lon="21.0156095"><ele>77.0</ele><time>2026-04-04T15:55:37.93Z</time></trkpt><trkpt lat="52.3802287" lon="21.015474"><ele>77.0</ele><time>2026-04-04T15:55:40.93Z</time></trkpt><trkpt lat="52.3801929" lon="21.0155753"><ele>77.0</ele><time>2026-04-04T15:55:44.929Z</time></trkpt><trkpt lat="52.3802635" lon="21.0156715"><ele>77.0</ele><time>2026-04-04T15:55:47.929Z</time></trkpt><trkpt lat="52.3802882" lon="21.015793"><ele>77.0</ele><time>2026-04-04T15:55:49.93Z</time></trkpt><trkpt lat="52.3803161" lon="21.0159463"><ele>77.0</ele><time>2026-04-04T15:55:51.929Z</time></trkpt><trkpt lat="52.3803475" lon="21.016119"><ele>77.0</ele><time>2026-04-04T15:55:53.929Z</time></trkpt><trkpt lat="52.3803879" lon="21.0163223"><ele>77.0</ele><time>2026-04-04T15:55:55.93Z</time></trkpt><trkpt lat="52.3804103" lon="21.0164378"><ele>77.0</ele><time>2026-04-04T15:55:56.929Z</time></trkpt><trkpt lat="52.3804368" lon="21.0165657"><ele>77.0</ele><time>2026-04-04T15:55:57.929Z</time></trkpt><trkpt lat="52.3804648" lon="21.0166985"><ele>77.0</ele><time>2026-04-04T15:55:58.929Z</time></trkpt><trkpt lat="52.3804951" lon="21.0168355"><ele>77.0</ele><time>2026-04-04T15:55:59.93Z</time></trkpt><trkpt lat="52.3805255" lon="21.0169642"><ele>77.0</ele><time>2026-04-04T15:56:00.93Z</time></trkpt><trkpt lat="52.3805561" lon="21.0170954"><ele>77.0</ele><time>2026-04-04T15:56:01.93Z</time></trkpt><trkpt lat="52.3805874" lon="21.0172295"><ele>77.0</ele><time>2026-04-04T15:56:02.929Z</time></trkpt><trkpt lat="52.3806181" lon="21.017357"><ele>77.0</ele><time>2026-04-04T15:56:03.929Z</time></trkpt><trkpt lat="52.3806509" lon="21.0174917"><ele>77.0</ele><time>2026-04-04T15:56:04.929Z</time></trkpt><trkpt lat="52.3806834" lon="21.0176192"><ele>77.0</ele><time>2026-04-04T15:56:05.929Z</time></trkpt><trkpt lat="52.3807168" lon="21.0177383"><ele>77.0</ele><time>2026-04-04T15:56:06.927Z</time></trkpt><trkpt lat="52.3807458" lon="21.0178478"><ele>76.0</ele><time>2026-04-04T15:56:07.928Z</time></trkpt><trkpt lat="52.3807965" lon="21.0180001"><ele>76.0</ele><time>2026-04-04T15:56:09.929Z</time></trkpt><trkpt lat="52.3808399" lon="21.0181323"><ele>76.0</ele><time>2026-04-04T15:56:12.929Z</time></trkpt></trkseg></trk></gpx>